TimeEST,TemperatureF,Dew PointF,Humidity,Sea Level PressureIn,VisibilityMPH,Wind Direction,Wind SpeedMPH,Gust SpeedMPH,PrecipitationIn,Events,Conditions,WindDirDegrees,DateUTC
12:53 AM,34.0,27.0,75,29.90,10.0,West,4.6,-,N/A,,Overcast,280,2012-12-11 05:53:00
1:53 AM,34.0,27.0,75,29.91,10.0,West,4.6,-,N/A,,Overcast,270,2012-12-11 06:53:00
2:53 AM,33.1,26.1,75,29.92,10.0,NW,9.2,-,N/A,,Overcast,310,2012-12-11 07:53:00
3:53 AM,32.0,24.1,73,29.94,10.0,WNW,4.6,-,N/A,,Overcast,290,2012-12-11 08:53:00
4:53 AM,30.9,24.1,76,29.96,10.0,WNW,4.6,-,N/A,,Overcast,300,2012-12-11 09:53:00
5:53 AM,30.9,23.0,72,29.98,10.0,WNW,4.6,-,N/A,,Overcast,290,2012-12-11 10:53:00
6:53 AM,30.9,24.1,76,30.00,10.0,WSW,4.6,-,N/A,,Overcast,250,2012-12-11 11:53:00
7:53 AM,30.0,25.0,82,30.02,10.0,West,3.5,-,N/A,,Mostly Cloudy,260,2012-12-11 12:53:00
8:53 AM,32.0,26.1,79,30.04,10.0,Calm,Calm,-,N/A,,Overcast,0,2012-12-11 13:53:00
9:02 AM,32.0,26.6,80,30.03,10.0,Calm,Calm,-,N/A,,Overcast,0,2012-12-11 14:02:00
9:46 AM,32.0,26.6,80,30.05,2.5,WSW,6.9,-,0.00,Snow,Light Snow,250,2012-12-11 14:46:00
9:53 AM,32.0,27.0,82,30.06,4.0,WSW,4.6,-,0.00,Snow,Light Snow,240,2012-12-11 14:53:00
10:02 AM,33.8,26.6,75,30.05,9.0,WSW,6.9,-,0.00,,Overcast,240,2012-12-11 15:02:00
10:53 AM,34.0,28.0,79,30.08,10.0,WSW,13.8,18.4,0.00,,Mostly Cloudy,250,2012-12-11 15:53:00
11:53 AM,37.0,25.0,62,30.07,10.0,WSW,16.1,-,N/A,,Partly Cloudy,240,2012-12-11 16:53:00
12:53 PM,35.1,21.9,59,30.08,10.0,WSW,17.3,23.0,N/A,,Mostly Cloudy,250,2012-12-11 17:53:00
1:53 PM,34.0,23.0,64,30.09,10.0,WSW,13.8,-,N/A,,Overcast,240,2012-12-11 18:53:00
2:53 PM,35.1,23.0,61,30.10,10.0,WSW,16.1,-,N/A,,Overcast,250,2012-12-11 19:53:00
3:53 PM,34.0,21.0,59,30.11,10.0,WSW,16.1,-,N/A,,Overcast,240,2012-12-11 20:53:00
4:53 PM,33.1,21.9,64,30.13,10.0,WSW,11.5,-,N/A,,Overcast,240,2012-12-11 21:53:00
5:53 PM,30.9,21.0,67,30.14,10.0,SSW,9.2,-,N/A,,Scattered Clouds,210,2012-12-11 22:53:00
6:53 PM,30.0,21.0,69,30.15,10.0,SW,8.1,-,N/A,,Clear,220,2012-12-11 23:53:00
7:53 PM,30.0,21.9,72,30.16,10.0,SSW,8.1,-,N/A,,Clear,210,2012-12-12 00:53:00
8:53 PM,30.0,21.9,72,30.17,10.0,SSW,10.4,-,N/A,,Clear,210,2012-12-12 01:53:00
9:53 PM,28.9,21.9,75,30.18,10.0,SSW,10.4,-,N/A,,Clear,210,2012-12-12 02:53:00
10:53 PM,28.0,21.9,78,30.20,10.0,SSW,6.9,-,N/A,,Clear,210,2012-12-12 03:53:00
11:53 PM,27.0,21.9,81,30.23,10.0,SW,6.9,-,N/A,,Clear,220,2012-12-12 04:53:00